Time;durP1;ratioP1;P1;durP2;ratioP2;P2;SDS_P1;SDS_P2;PMS_P1;PMS_P2;Temp;Humidity;BMP_temperature;BMP_pressure;BME280_temperature;BME280_humidity;BME280_pressure;Samples;Min_cycle;Max_cycle;Signal;HPM_P1;HPM_P2
2023/01/06 00:00:32;;;;;;;49.90;17.55;;;;;;;10.15;100.00;101594.78;4993649;28;20045;-88
2023/01/06 00:02:58;;;;;;;52.90;17.85;;;;;;;10.10;100.00;101581.88;5000232;28;20054;-88
2023/01/06 00:05:23;;;;;;;40.92;15.27;;;;;;;10.16;100.00;101580.44;4985335;28;20683;-89
2023/01/06 00:07:50;;;;;;;38.40;14.15;;;;;;;10.16;100.00;101576.81;5001021;28;20037;-87
2023/01/06 00:10:15;;;;;;;39.97;14.85;;;;;;;10.00;100.00;101560.00;4990624;28;20041;-88
2023/01/06 00:12:44;;;;;;;37.63;15.18;;;;;;;10.07;100.00;101556.59;4987015;28;20071;-88
2023/01/06 00:15:10;;;;;;;42.03;14.00;;;;;;;10.14;100.00;101571.59;4990330;28;20034;-88
2023/01/06 00:17:35;;;;;;;39.15;12.57;;;;;;;10.16;100.00;101586.03;4986145;28;20034;-88
2023/01/06 00:20:02;;;;;;;39.13;13.77;;;;;;;10.13;100.00;101566.34;4988380;28;20037;-88
2023/01/06 00:22:27;;;;;;;37.30;12.77;;;;;;;10.13;100.00;101564.38;4987917;28;20089;-89
2023/01/06 00:24:52;;;;;;;39.78;12.57;;;;;;;10.18;100.00;101566.06;5003233;28;20042;-89
2023/01/06 00:27:18;;;;;;;38.30;14.23;;;;;;;10.16;100.00;101565.63;5005619;28;20041;-88
2023/01/06 00:29:43;;;;;;;34.05;12.77;;;;;;;10.15;100.00;101564.00;4986836;28;20421;-88
2023/01/06 00:32:08;;;;;;;41.85;14.35;;;;;;;10.12;100.00;101559.16;4998480;28;20034;-89
2023/01/06 00:34:34;;;;;;;39.72;13.35;;;;;;;9.97;100.00;101539.19;4982770;28;20037;-87
2023/01/06 00:36:59;;;;;;;41.30;13.82;;;;;;;10.14;100.00;101581.94;4982452;28;20057;-89
2023/01/06 00:39:25;;;;;;;29.05;10.65;;;;;;;10.02;100.00;101551.28;5000250;28;20022;-90
2023/01/06 00:42:02;;;;;;;38.65;12.25;;;;;;;10.02;100.00;101565.25;4989258;28;20478;-90
2023/01/06 00:44:34;;;;;;;32.35;12.25;;;;;;;10.13;100.00;101574.75;4985984;28;20041;-88
2023/01/06 00:47:01;;;;;;;26.42;10.82;;;;;;;10.16;100.00;101586.03;4982357;28;20020;-89
2023/01/06 00:49:26;;;;;;;27.95;10.40;;;;;;;10.02;100.00;101568.06;4980398;28;20092;-90
2023/01/06 00:51:52;;;;;;;27.38;10.30;;;;;;;10.13;100.00;101580.34;4986509;28;20663;-90
2023/01/06 00:54:18;;;;;;;26.60;10.57;;;;;;;10.14;100.00;101573.56;4988043;28;20027;-89
2023/01/06 00:56:46;;;;;;;26.52;10.35;;;;;;;10.09;100.00;101568.25;4989628;28;20034;-89
2023/01/06 00:59:14;;;;;;;30.60;11.55;;;;;;;10.13;100.00;101591.53;4985174;28;20076;-90
2023/01/06 01:01:40;;;;;;;37.65;11.95;;;;;;;10.10;100.00;101575.47;4981389;28;20464;-89
2023/01/06 01:04:06;;;;;;;27.52;10.63;;;;;;;10.11;100.00;101572.31;4987948;28;20032;-90
2023/01/06 01:06:32;;;;;;;32.35;10.45;;;;;;;10.11;100.00;101577.09;4981988;28;20057;-90
2023/01/06 01:08:59;;;;;;;20.35;9.52;;;;;;;10.12;100.00;101581.53;4979310;28;20054;-90
2023/01/06 01:14:11;;;;;;;37.13;10.35;;;;;;;10.09;100.00;101573.84;4984000;28;20037;-91
2023/01/06 01:16:37;;;;;;;32.97;10.90;;;;;;;10.10;100.00;101564.28;4987925;28;20041;-89
2023/01/06 01:19:02;;;;;;;27.88;9.52;;;;;;;10.09;100.00;101560.66;4986475;28;20041;-91
2023/01/06 01:21:28;;;;;;;22.58;9.57;;;;;;;10.10;100.00;101559.50;4988116;28;20026;-89
2023/01/06 01:23:53;;;;;;;36.90;9.50;;;;;;;10.03;100.00;101544.50;4992630;28;20061;-90
2023/01/06 01:26:19;;;;;;;25.85;9.60;;;;;;;10.11;100.00;101551.91;4990288;28;20027;-89
2023/01/06 01:28:44;;;;;;;26.25;11.27;;;;;;;10.06;100.00;101536.22;4990159;28;20037;-89
2023/01/06 01:31:09;;;;;;;26.52;9.05;;;;;;;10.06;100.00;101525.03;5007718;28;20463;-89
2023/01/06 01:33:36;;;;;;;31.70;10.85;;;;;;;10.16;100.00;101546.88;4984364;28;20196;-89
2023/01/06 01:36:09;;;;;;;23.88;8.63;;;;;;;9.95;100.00;101519.16;4988828;28;20040;-89
2023/01/06 01:38:35;;;;;;;15.98;8.38;;;;;;;10.14;100.00;101551.19;5001842;28;20164;-89
2023/01/06 01:41:01;;;;;;;14.57;6.60;;;;;;;10.16;100.00;101546.03;4990657;28;20534;-89
2023/01/06 01:43:50;;;;;;;16.10;6.88;;;;;;;10.13;100.00;101544.78;4984494;28;20073;-89
2023/01/06 01:46:22;;;;;;;20.33;8.07;;;;;;;10.15;100.00;101538.84;4992186;28;20105;-89
2023/01/06 01:48:47;;;;;;;14.35;6.28;;;;;;;10.08;100.00;101521.88;5001227;28;20100;-90
2023/01/06 01:51:17;;;;;;;24.35;8.55;;;;;;;10.07;100.00;101528.63;4994942;28;20029;-89
2023/01/06 01:53:48;;;;;;;24.60;7.40;;;;;;;10.09;100.00;101529.88;4982487;28;20274;-90
2023/01/06 01:56:20;;;;;;;19.73;7.80;;;;;;;10.02;100.00;101524.09;4984282;28;20053;-89
2023/01/06 01:58:53;;;;;;;22.88;7.43;;;;;;;10.10;100.00;101528.72;4989598;28;20046;-90
2023/01/06 02:01:18;;;;;;;18.00;6.53;;;;;;;10.05;100.00;101528.97;4981688;28;20069;-89
2023/01/06 02:03:44;;;;;;;20.85;7.60;;;;;;;10.01;100.00;101521.66;4993351;28;21505;-90
2023/01/06 02:06:15;;;;;;;23.70;7.97;;;;;;;10.11;100.00;101546.31;4994780;28;20023;-89
2023/01/06 02:08:46;;;;;;;20.38;6.20;;;;;;;10.07;100.00;101525.81;4997590;28;20030;-89
2023/01/06 02:11:12;;;;;;;19.52;6.88;;;;;;;10.07;100.00;101525.81;4996910;28;22181;-90
2023/01/06 02:13:40;;;;;;;17.73;7.75;;;;;;;10.09;100.00;101517.88;4989887;28;20032;-90
2023/01/06 02:16:32;;;;;;;25.45;9.23;;;;;;;10.08;100.00;101521.88;4982735;28;20053;-90
2023/01/06 02:19:00;;;;;;;15.35;7.38;;;;;;;10.09;100.00;101513.09;4986118;28;20137;-89
2023/01/06 02:21:58;;;;;;;23.90;9.25;;;;;;;10.08;100.00;101516.28;5004213;28;20035;-88
2023/01/06 02:24:32;;;;;;;18.45;8.32;;;;;;;10.10;100.00;101516.72;4984518;28;20057;-89
2023/01/06 02:27:35;;;;;;;26.02;9.45;;;;;;;10.05;100.00;101514.19;4983775;28;20026;-88
2023/01/06 02:30:18;;;;;;;23.92;9.95;;;;;;;10.07;100.00;101509.03;4981658;28;20490;-89
2023/01/06 02:32:55;;;;;;;26.20;11.77;;;;;;;10.04;100.00;101499.41;5005828;28;20437;-89
2023/01/06 02:36:05;;;;;;;21.65;10.45;;;;;;;10.11;100.00;101510.75;4985718;28;20030;-88
2023/01/06 02:38:40;;;;;;;22.77;10.95;;;;;;;10.11;100.00;101504.34;4983607;28;20030;-89
2023/01/06 02:41:30;;;;;;;28.00;12.15;;;;;;;10.10;100.00;101494.34;4978972;28;20041;-89
2023/01/06 02:44:31;;;;;;;24.58;10.60;;;;;;;10.08;100.00;101479.91;4987547;28;20033;-89
2023/01/06 02:47:17;;;;;;;26.60;11.32;;;;;;;10.01;100.00;101471.31;5001521;28;20116;-89
2023/01/06 02:49:52;;;;;;;32.53;11.65;;;;;;;10.09;100.00;101493.53;5000309;28;20030;-88
2023/01/06 02:52:36;;;;;;;22.48;11.07;;;;;;;10.08;100.00;101488.31;4999820;28;20036;-89
2023/01/06 02:55:36;;;;;;;26.60;11.05;;;;;;;10.12;100.00;101483.63;4989741;28;20113;-90
2023/01/06 02:58:14;;;;;;;23.17;10.10;;;;;;;10.04;100.00;101471.41;4989944;28;20572;-90
2023/01/06 03:00:44;;;;;;;26.60;12.35;;;;;;;10.05;100.00;101463.84;4989818;28;20022;-89
2023/01/06 03:03:13;;;;;;;21.10;10.77;;;;;;;9.93;100.00;101437.59;4989865;28;20030;-88
2023/01/06 03:05:42;;;;;;;21.70;11.23;;;;;;;10.01;100.00;101455.34;4986442;28;20019;-89
2023/01/06 03:08:13;;;;;;;24.77;12.93;;;;;;;10.01;100.00;101454.53;4985972;28;20503;-89
2023/01/06 03:10:43;;;;;;;24.05;12.07;;;;;;;10.06;100.00;101457.09;4987435;28;20030;-90
2023/01/06 03:13:34;;;;;;;29.23;12.25;;;;;;;10.00;100.00;101441.75;4986242;28;20044;-89
2023/01/06 03:16:00;;;;;;;24.13;12.50;;;;;;;9.97;100.00;101446.88;4990012;28;20490;-90
2023/01/06 03:18:26;;;;;;;24.98;10.45;;;;;;;10.01;100.00;101448.94;4995854;28;20030;-90
2023/01/06 03:20:53;;;;;;;24.17;11.50;;;;;;;10.02;100.00;101436.59;4980530;28;20030;-90
2023/01/06 03:23:19;;;;;;;26.25;10.93;;;;;;;9.97;100.00;101427.31;4984540;28;20404;-90
2023/01/06 03:25:45;;;;;;;22.85;11.07;;;;;;;9.92;100.00;101418.38;4994384;28;20021;-90
2023/01/06 03:28:10;;;;;;;26.92;11.20;;;;;;;9.93;100.00;101431.19;4984818;28;20053;-89
2023/01/06 03:30:57;;;;;;;21.05;10.18;;;;;;;9.97;100.00;101421.72;4986447;28;20599;-89
2023/01/06 03:33:34;;;;;;;22.42;10.85;;;;;;;9.96;100.00;101420.06;5003221;28;20030;-89
2023/01/06 03:36:13;;;;;;;22.90;9.77;;;;;;;10.03;100.00;101418.63;4987641;28;20034;-89
2023/01/06 03:38:49;;;;;;;22.25;9.27;;;;;;;10.01;100.00;101409.78;4990771;28;20061;-89
2023/01/06 03:43:10;;;;;;;18.67;8.18;;;;;;;9.98;100.00;101403.75;4985007;28;20069;-89
2023/01/06 03:44:17;;;;;;;19.67;9.55;;;;;;;10.00;100.00;101399.78;4985977;28;20517;-89
2023/01/06 03:46:47;;;;;;;;;;;;;;;9.99;100.00;101401.75;4996004;28;20393;-89
2023/01/06 03:49:20;;;;;;;18.50;8.98;;;;;;;10.02;100.00;101408.63;4987937;28;19917;-90
2023/01/06 03:51:48;;;;;;;;;;;;;;;10.02;100.00;101397.44;4989359;28;20034;-90
2023/01/06 03:54:38;;;;;;;31.80;12.75;;;;;;;10.02;100.00;101389.06;4998305;28;20300;-88
2023/01/06 03:57:27;;;;;;;27.27;12.95;;;;;;;9.98;100.00;101397.34;4999230;28;20030;-88
2023/01/06 04:00:02;;;;;;;32.88;13.35;;;;;;;9.96;100.00;101383.72;4983627;28;20512;-89
2023/01/06 04:02:27;;;;;;;29.00;13.73;;;;;;;10.02;100.00;101389.06;4987880;28;20129;-90
2023/01/06 04:05:09;;;;;;;29.40;13.57;;;;;;;10.00;100.00;101380.22;4985859;28;20022;-90
2023/01/06 04:07:36;;;;;;;32.80;14.30;;;;;;;9.97;100.00;101368.56;4989914;28;20042;-89
2023/01/06 04:10:02;;;;;;;34.13;14.18;;;;;;;9.98;100.00;101370.19;4986393;28;20085;-89
2023/01/06 04:12:39;;;;;;;34.08;15.10;;;;;;;10.02;100.00;101367.50;4987462;28;20103;-92
2023/01/06 04:15:12;;;;;;;28.30;15.57;;;;;;;10.03;100.00;101351.50;4984863;28;20049;-91
2023/01/06 04:17:39;;;;;;;31.77;15.35;;;;;;;10.01;100.00;101342.66;4979968;28;20566;-90
2023/01/06 04:20:06;;;;;;;37.05;15.82;;;;;;;9.95;100.00;101337.38;4986032;28;20031;-91
2023/01/06 04:22:32;;;;;;;31.40;13.50;;;;;;;9.89;100.00;101333.22;4985970;28;20557;-91
2023/01/06 04:24:57;;;;;;;22.02;11.10;;;;;;;9.97;100.00;101337.81;4980616;28;20038;-92
2023/01/06 04:27:22;;;;;;;20.63;11.55;;;;;;;10.02;100.00;101321.94;5000194;28;20031;-91
2023/01/06 04:29:48;;;;;;;28.67;13.38;;;;;;;9.92;100.00;101301.72;4997660;28;20069;-91
2023/01/06 04:32:13;;;;;;;25.08;9.80;;;;;;;9.99;100.00;101317.84;4979176;28;20026;-91
2023/01/06 04:34:38;;;;;;;19.30;9.05;;;;;;;9.99;100.00;101329.03;4987263;28;20045;-91
2023/01/06 04:37:04;;;;;;;17.73;8.65;;;;;;;10.03;100.00;101317.94;4989326;28;20030;-91
2023/01/06 04:39:29;;;;;;;15.85;9.27;;;;;;;10.03;100.00;101315.16;4996989;28;20042;-91
2023/01/06 04:41:55;;;;;;;14.32;6.57;;;;;;;10.01;100.00;101292.34;4988078;28;20045;-91
2023/01/06 04:44:20;;;;;;;17.92;7.97;;;;;;;10.06;100.00;101312.44;4980692;28;20065;-91
2023/01/06 04:46:45;;;;;;;12.70;7.25;;;;;;;10.05;100.00;101310.00;4994155;28;20027;-91
2023/01/06 04:49:11;;;;;;;13.02;5.90;;;;;;;9.94;100.00;101279.00;4993872;28;20100;-90
2023/01/06 04:51:36;;;;;;;8.57;4.47;;;;;;;10.01;100.00;101287.53;4985297;28;20030;-91
2023/01/06 04:54:02;;;;;;;9.40;5.57;;;;;;;10.00;100.00;101274.75;4983575;28;20392;-89
2023/01/06 04:56:27;;;;;;;12.40;5.53;;;;;;;10.06;100.00;101290.06;4979927;28;20026;-88
2023/01/06 04:58:54;;;;;;;8.38;4.43;;;;;;;10.09;100.00;101291.31;4984795;28;20117;-88
2023/01/06 05:01:21;;;;;;;11.45;4.80;;;;;;;9.94;100.00;101251.84;4988696;28;20038;-88
2023/01/06 05:03:46;;;;;;;8.82;5.07;;;;;;;10.07;100.00;101280.50;4989026;28;20490;-90
2023/01/06 05:06:12;;;;;;;10.50;5.90;;;;;;;10.07;100.00;101279.69;4990524;28;20161;-90
2023/01/06 05:08:40;;;;;;;11.52;5.22;;;;;;;10.14;100.00;101286.28;4986288;28;20141;-92
2023/01/06 05:11:12;;;;;;;16.20;7.45;;;;;;;10.18;100.00;101283.53;4984576;28;20061;-91
2023/01/06 05:13:38;;;;;;;15.85;6.70;;;;;;;10.21;100.00;101284.81;4986252;28;20038;-91
2023/01/06 05:16:09;;;;;;;20.02;6.78;;;;;;;10.16;100.00;101283.09;4990766;28;20405;-90
2023/01/06 05:18:34;;;;;;;20.60;7.10;;;;;;;10.16;100.00;101272.72;4992586;28;20137;-91
2023/01/06 05:21:00;;;;;;;19.08;8.40;;;;;;;10.00;100.00;101254.38;5000700;28;20957;-91
2023/01/06 05:23:26;;;;;;;15.52;7.82;;;;;;;10.13;100.00;101279.03;4988402;28;20411;-91
2023/01/06 05:25:51;;;;;;;23.27;10.13;;;;;;;10.10;100.00;101276.19;4982959;28;20034;-89
2023/01/06 05:28:18;;;;;;;20.05;10.32;;;;;;;9.93;100.00;101236.25;4985821;28;20034;-90
2023/01/06 05:30:43;;;;;;;15.05;8.05;;;;;;;9.91;100.00;101238.59;4986441;28;20504;-91
2023/01/06 05:33:09;;;;;;;18.35;8.80;;;;;;;10.09;100.00;101266.16;4987068;28;20035;-91
2023/01/06 05:35:34;;;;;;;21.75;9.20;;;;;;;9.97;100.00;101247.50;4987619;28;20034;-90
2023/01/06 05:38:00;;;;;;;15.70;9.13;;;;;;;10.03;100.00;101268.41;5005865;28;20036;-90
2023/01/06 05:40:25;;;;;;;18.50;8.52;;;;;;;9.93;100.00;101247.44;4982354;28;20062;-90
2023/01/06 05:42:54;;;;;;;14.10;8.25;;;;;;;10.01;100.00;101253.19;4986541;28;20034;-91
2023/01/06 05:45:24;;;;;;;22.67;10.43;;;;;;;10.08;100.00;101259.75;4984839;28;20034;-90
2023/01/06 05:47:49;;;;;;;16.20;9.30;;;;;;;10.03;100.00;101250.81;5006707;28;20030;-89
2023/01/06 05:50:15;;;;;;;19.17;10.23;;;;;;;10.09;100.00;101252.97;4981859;28;20027;-90
2023/01/06 05:52:41;;;;;;;14.23;8.52;;;;;;;9.99;100.00;101245.16;4986631;28;20054;-89
2023/01/06 05:55:07;;;;;;;17.67;8.40;;;;;;;10.00;100.00;101246.78;4996527;28;20107;-90
2023/01/06 05:57:34;;;;;;;16.75;8.48;;;;;;;10.11;100.00;101258.22;4991322;28;20085;-90
2023/01/06 05:59:59;;;;;;;28.08;10.20;;;;;;;10.08;100.00;101253.34;4985847;28;20584;-90
2023/01/06 06:02:24;;;;;;;17.65;9.55;;;;;;;10.05;100.00;101259.66;4971740;28;20104;-90
2023/01/06 06:04:53;;;;;;;17.63;9.68;;;;;;;10.03;100.00;101264.81;4981816;28;20041;-90
2023/01/06 06:07:18;;;;;;;17.80;10.15;;;;;;;10.00;100.00;101265.56;4983407;28;20030;-91
2023/01/06 06:09:43;;;;;;;21.88;10.35;;;;;;;9.88;100.00;101244.91;4998978;28;20058;-91
2023/01/06 06:12:09;;;;;;;24.77;10.27;;;;;;;9.94;100.00;101259.44;4979360;28;20031;-91
2023/01/06 06:14:34;;;;;;;22.20;10.43;;;;;;;9.86;100.00;101247.25;4980815;28;20278;-90
2023/01/06 06:16:59;;;;;;;53.70;11.77;;;;;;;9.83;100.00;101241.59;4986110;28;20056;-91
2023/01/06 06:19:25;;;;;;;24.40;10.50;;;;;;;9.83;100.00;101259.19;4987184;28;20030;-89
2023/01/06 06:21:52;;;;;;;24.50;11.80;;;;;;;9.83;100.00;101242.41;5001856;28;20635;-90
2023/01/06 06:24:17;;;;;;;21.35;11.13;;;;;;;9.68;100.00;101240.47;4998378;28;20061;-88
2023/01/06 06:26:43;;;;;;;25.45;10.80;;;;;;;9.81;100.00;101255.13;4975261;28;20033;-91
2023/01/06 06:29:08;;;;;;;22.83;9.70;;;;;;;9.81;100.00;101249.53;4979191;28;20058;-91
2023/01/06 06:31:33;;;;;;;31.98;11.93;;;;;;;9.74;100.00;101239.81;4982850;28;20030;-91
2023/01/06 06:34:01;;;;;;;22.27;11.27;;;;;;;9.69;100.00;101242.88;4979486;28;20034;-90
2023/01/06 06:36:27;;;;;;;25.27;12.95;;;;;;;9.72;100.00;101260.91;4981523;28;20417;-89
2023/01/06 06:38:53;;;;;;;31.20;13.13;;;;;;;9.74;100.00;101247.38;4969116;28;20040;-89
2023/01/06 06:41:20;;;;;;;28.77;12.55;;;;;;;9.58;100.00;101213.88;4982793;28;20057;-89
2023/01/06 06:43:46;;;;;;;32.47;13.45;;;;;;;9.65;100.00;101232.78;4980942;28;20418;-90
2023/01/06 06:46:12;;;;;;;24.63;11.52;;;;;;;9.64;100.00;101237.56;4979793;28;20088;-89
2023/01/06 06:48:37;;;;;;;26.50;11.73;;;;;;;9.62;100.00;101247.50;4995133;28;20022;-89
2023/01/06 06:51:09;;;;;;;24.98;11.73;;;;;;;9.50;100.00;101212.88;4982723;28;20121;-90
2023/01/06 06:53:35;;;;;;;24.42;12.82;;;;;;;9.43;100.00;101220.28;4977509;28;20038;-90
2023/01/06 06:56:01;;;;;;;30.33;11.77;;;;;;;9.56;100.00;101241.34;4979482;28;20478;-91
2023/01/06 06:58:26;;;;;;;31.40;12.98;;;;;;;9.47;100.00;101230.38;4978228;28;20034;-91
2023/01/06 07:00:52;;;;;;;29.13;12.35;;;;;;;9.45;100.00;101227.13;4975444;28;20038;-90
2023/01/06 07:03:18;;;;;;;32.42;12.48;;;;;;;9.82;100.00;101237.97;4979618;28;20052;-84
2023/01/06 07:05:46;;;;;;;25.73;12.35;;;;;;;9.89;100.00;101268.09;4978664;28;20036;-90
2023/01/06 07:08:12;;;;;;;22.67;12.27;;;;;;;9.76;100.00;101278.56;4974904;28;20153;-91
2023/01/06 07:10:37;;;;;;;22.08;12.20;;;;;;;9.67;100.00;101270.38;4971803;28;20038;-88
2023/01/06 07:13:03;;;;;;;21.48;11.82;;;;;;;9.63;100.00;101265.88;4979539;28;20044;-90
2023/01/06 07:15:29;;;;;;;29.80;12.95;;;;;;;9.42;100.00;101230.63;4983376;28;20038;-90
2023/01/06 07:17:54;;;;;;;27.63;12.80;;;;;;;9.60;100.00;101266.59;4992044;28;20042;-90
2023/01/06 07:20:20;;;;;;;26.55;11.98;;;;;;;9.50;100.00;101263.16;4984908;28;20037;-91
2023/01/06 07:22:45;;;;;;;23.33;12.60;;;;;;;9.46;100.00;101267.06;4978170;28;20034;-94
2023/01/06 07:25:10;;;;;;;24.48;12.35;;;;;;;9.56;100.00;101261.72;4982788;28;20088;-91
2023/01/06 07:27:36;;;;;;;23.45;11.35;;;;;;;9.59;100.00;101284.53;4981899;28;20375;-92
2023/01/06 07:30:03;;;;;;;20.60;11.35;;;;;;;9.44;100.00;101247.84;4976833;28;20061;-92
2023/01/06 07:32:29;;;;;;;24.85;10.90;;;;;;;9.38;100.00;101245.69;4996912;28;20037;-91
2023/01/06 07:34:54;;;;;;;21.58;11.63;;;;;;;9.54;100.00;101274.44;4984559;28;20030;-91
2023/01/06 07:37:20;;;;;;;18.58;10.10;;;;;;;9.64;100.00;101292.66;4984413;28;20077;-90
2023/01/06 07:39:45;;;;;;;16.08;9.70;;;;;;;9.68;100.00;101288.78;4986647;28;20037;-91
2023/01/06 07:42:11;;;;;;;19.17;10.18;;;;;;;9.68;100.00;101299.16;4982609;28;20034;-93
2023/01/06 07:44:36;;;;;;;16.08;9.80;;;;;;;9.57;100.00;101284.88;4986658;28;20033;-92
2023/01/06 07:47:02;;;;;;;14.82;8.68;;;;;;;9.63;100.00;101289.03;4982858;28;20483;-92
2023/01/06 07:49:27;;;;;;;15.15;8.95;;;;;;;9.65;100.00;101316.63;4981609;28;20030;-93
2023/01/06 07:51:53;;;;;;;17.42;8.43;;;;;;;9.57;100.00;101308.06;4983940;28;21656;-95
2023/01/06 07:54:18;;;;;;;15.63;8.45;;;;;;;9.61;100.00;101329.69;4997527;28;20033;-92
2023/01/06 07:56:43;;;;;;;16.70;8.43;;;;;;;9.59;100.00;101332.03;4984345;28;21576;-93
2023/01/06 07:59:09;;;;;;;20.02;9.05;;;;;;;9.68;100.00;101355.06;4983817;28;20526;-93
2023/01/06 08:01:35;;;;;;;14.88;8.38;;;;;;;9.64;100.00;101363.34;4984099;28;20029;-93
2023/01/06 08:04:00;;;;;;;14.93;8.77;;;;;;;9.64;100.00;101368.13;4983832;28;20034;-93
2023/01/06 08:06:25;;;;;;;13.38;7.50;;;;;;;9.70;100.00;101375.88;4998036;28;20113;-90
2023/01/06 08:08:51;;;;;;;13.70;6.47;;;;;;;9.63;100.00;101363.69;4999689;28;20110;-92
2023/01/06 08:11:16;;;;;;;11.75;6.15;;;;;;;9.58;100.00;101370.38;4999079;28;20085;-90
2023/01/06 08:13:41;;;;;;;10.48;6.20;;;;;;;9.61;100.00;101396.78;4984730;28;20038;-91
2023/01/06 08:16:08;;;;;;;14.63;6.53;;;;;;;9.51;100.00;101393.34;4980527;28;20031;-91
2023/01/06 08:18:34;;;;;;;22.70;6.63;;;;;;;9.35;100.00;101384.94;4982601;28;20023;-90
2023/01/06 08:21:06;;;;;;;15.93;5.82;;;;;;;9.56;100.00;101418.22;4981300;28;20034;-90
2023/01/06 08:23:31;;;;;;;19.63;5.63;;;;;;;9.44;100.00;101418.28;4996304;28;20085;-91
2023/01/06 08:26:04;;;;;;;16.95;7.07;;;;;;;9.45;100.00;101425.53;4981219;28;20022;-92
2023/01/06 08:28:30;;;;;;;;;;;;;;;9.36;100.00;101441.63;4983648;28;20035;-90
2023/01/06 08:30:55;;;;;;;15.13;5.20;;;;;;;9.38;100.00;101441.25;4982665;28;19922;-91
2023/01/06 08:33:23;;;;;;;22.15;7.35;;;;;;;9.37;100.00;101443.25;4983693;28;20045;-91
2023/01/06 08:35:49;;;;;;;13.57;5.88;;;;;;;9.39;100.00;101446.50;4982204;28;20046;-91
2023/01/06 08:38:14;;;;;;;18.33;4.82;;;;;;;9.26;100.00;101444.94;4980682;28;20505;-92
2023/01/06 08:40:40;;;;;;;21.33;4.50;;;;;;;9.31;100.00;101433.50;4986206;28;20027;-92
2023/01/06 08:43:05;;;;;;;18.75;4.82;;;;;;;9.23;100.00;101437.25;4985765;28;20027;-93
2023/01/06 08:45:31;;;;;;;20.50;3.97;;;;;;;9.16;100.00;101435.06;4996480;28;20032;-90
2023/01/06 08:47:56;;;;;;;13.57;4.05;;;;;;;9.19;100.00;101445.50;4982104;28;20057;-92
2023/01/06 08:50:22;;;;;;;14.63;4.18;;;;;;;9.19;100.00;101437.13;4982548;28;20065;-91
2023/01/06 08:52:47;;;;;;;15.10;3.22;;;;;;;8.97;100.00;101406.97;4983181;28;20482;-91
2023/01/06 08:55:13;;;;;;;11.88;4.22;;;;;;;9.16;100.00;101449.84;4982703;28;20030;-91
2023/01/06 08:57:38;;;;;;;20.67;4.05;;;;;;;9.11;100.00;101446.50;4983457;28;20031;-91
2023/01/06 09:00:04;;;;;;;15.20;4.47;;;;;;;9.12;100.00;101470.47;4984992;28;20093;-91
2023/01/06 09:02:30;;;;;;;26.60;4.18;;;;;;;9.14;100.00;101471.72;4995718;28;20030;-91
2023/01/06 09:04:55;;;;;;;22.00;3.78;;;;;;;9.22;100.00;101471.94;4983740;28;20537;-90
2023/01/06 09:07:21;;;;;;;25.30;4.05;;;;;;;9.15;100.00;101484.53;4997689;28;20537;-91
2023/01/06 09:09:46;;;;;;;24.20;4.57;;;;;;;9.17;100.00;101478.59;4983026;28;20145;-92
2023/01/06 09:12:12;;;;;;;32.13;4.82;;;;;;;9.12;100.00;101471.25;4981640;28;20031;-92
2023/01/06 09:14:37;;;;;;;24.92;3.80;;;;;;;9.18;100.00;101488.59;4980693;28;20478;-91
2023/01/06 09:17:02;;;;;;;27.05;4.40;;;;;;;9.09;100.00;101494.31;4981642;28;20027;-91
2023/01/06 09:19:28;;;;;;;18.20;4.78;;;;;;;8.99;100.00;101494.81;4999424;28;20022;-90
2023/01/06 09:21:53;;;;;;;21.55;4.07;;;;;;;9.18;100.00;101501.75;4982101;28;20034;-91
2023/01/06 09:24:19;;;;;;;21.38;4.90;;;;;;;8.81;100.00;101477.50;4979788;28;20115;-90
2023/01/06 09:26:44;;;;;;;17.90;3.88;;;;;;;9.09;100.00;101510.28;4999272;28;20019;-90
2023/01/06 09:29:09;;;;;;;14.18;4.75;;;;;;;9.06;100.00;101489.44;4994251;28;20043;-91
2023/01/06 09:31:35;;;;;;;20.15;3.75;;;;;;;8.85;100.00;101497.16;4978639;28;20030;-91
2023/01/06 09:34:00;;;;;;;13.40;3.25;;;;;;;9.13;100.00;101523.19;4979374;28;20073;-91
2023/01/06 09:36:26;;;;;;;18.92;4.22;;;;;;;9.06;100.00;101516.56;4988259;28;20057;-91
2023/01/06 09:38:51;;;;;;;14.80;3.60;;;;;;;9.06;100.00;101528.53;4985195;28;20569;-90
2023/01/06 09:41:39;;;;;;;15.90;3.45;;;;;;;9.05;100.00;101529.72;4983394;28;20041;-91
2023/01/06 09:44:29;;;;;;;23.23;3.58;;;;;;;9.09;100.00;101527.03;4984266;28;20073;-90
2023/01/06 09:46:56;;;;;;;33.60;6.10;;;;;;;8.97;100.00;101515.88;4986725;28;20084;-91
2023/01/06 09:49:31;;;;;;;19.58;3.60;;;;;;;9.00;100.00;101546.69;5001139;28;20030;-91
2023/01/06 09:52:02;;;;;;;24.95;3.83;;;;;;;8.98;100.00;101543.47;5000678;28;20038;-91
2023/01/06 09:54:46;;;;;;;17.65;3.22;;;;;;;9.07;100.00;101555.31;4997348;28;20499;-91
2023/01/06 09:57:29;;;;;;;20.10;4.78;;;;;;;8.82;100.00;101526.59;4985691;28;20062;-90
2023/01/06 09:59:58;;;;;;;24.10;5.22;;;;;;;9.05;100.00;101557.63;4998441;28;20121;-90
2023/01/06 10:02:35;;;;;;;17.77;4.05;;;;;;;8.93;100.00;101535.31;4984595;28;20038;-90
2023/01/06 10:05:14;;;;;;;27.10;3.35;;;;;;;9.05;100.00;101566.00;4982659;28;20026;-89
2023/01/06 10:07:56;;;;;;;20.42;3.10;;;;;;;9.14;100.00;101569.47;4983231;28;20022;-89
2023/01/06 10:11:03;;;;;;;20.45;5.50;;;;;;;9.15;100.00;101568.31;4983756;28;20077;-91
2023/01/06 10:13:40;;;;;;;21.15;5.85;;;;;;;9.15;100.00;101582.28;4985752;28;20223;-91
2023/01/06 10:16:25;;;;;;;30.08;4.32;;;;;;;9.13;100.00;101575.44;4997073;28;20117;-90
2023/01/06 10:19:02;;;;;;;11.57;2.30;;;;;;;9.20;100.00;101588.81;4980786;28;20074;-91
2023/01/06 10:21:56;;;;;;;19.95;3.53;;;;;;;9.14;100.00;101580.66;4985206;28;20045;-90
2023/01/06 10:24:39;;;;;;;30.90;3.35;;;;;;;9.18;100.00;101585.56;4994291;28;20509;-91
2023/01/06 10:27:26;;;;;;;17.92;3.08;;;;;;;9.11;100.00;101586.16;5001031;28;20402;-91
2023/01/06 10:29:54;;;;;;;27.45;4.45;;;;;;;9.13;100.00;101584.63;4981349;28;20081;-91
2023/01/06 10:32:21;;;;;;;17.77;3.78;;;;;;;9.11;100.00;101592.53;4983056;28;20022;-90
2023/01/06 10:34:49;;;;;;;17.17;2.63;;;;;;;9.08;100.00;101575.66;4984738;28;21344;-89
2023/01/06 10:37:30;;;;;;;15.93;4.07;;;;;;;9.16;100.00;101594.28;4983865;28;20034;-91
2023/01/06 10:40:11;;;;;;;21.10;3.20;;;;;;;9.19;100.00;101592.75;4984172;28;20030;-90
2023/01/06 10:42:57;;;;;;;23.33;3.22;;;;;;;9.19;100.00;101598.34;5000353;28;20026;-90
2023/01/06 10:45:36;;;;;;;18.10;2.65;;;;;;;9.20;100.00;101602.78;4981135;28;20504;-90
2023/01/06 10:48:04;;;;;;;22.88;2.75;;;;;;;9.18;100.00;101591.94;4984136;28;20560;-90
2023/01/06 10:50:32;;;;;;;17.33;2.47;;;;;;;9.29;100.00;101583.91;4986674;28;20076;-90
2023/01/06 10:52:58;;;;;;;9.18;2.50;;;;;;;9.23;100.00;101582.50;4979667;28;20034;-91
2023/01/06 10:55:45;;;;;;;14.80;2.72;;;;;;;9.24;100.00;101592.53;4982736;28;20486;-91
2023/01/06 10:58:22;;;;;;;16.38;2.47;;;;;;;9.22;100.00;101586.47;4981390;28;20036;-91
2023/01/06 11:01:08;;;;;;;18.63;2.85;;;;;;;9.26;100.00;101584.63;4998768;28;20479;-91
2023/01/06 11:03:35;;;;;;;13.48;2.75;;;;;;;9.22;100.00;101572.50;4996209;28;20553;-90
2023/01/06 11:06:14;;;;;;;13.82;2.72;;;;;;;9.21;100.00;101580.06;4985784;28;20101;-90
2023/01/06 11:08:40;;;;;;;21.23;2.40;;;;;;;9.23;100.00;101576.91;5000300;28;20042;-90
2023/01/06 11:11:11;;;;;;;9.07;2.70;;;;;;;9.22;100.00;101578.91;4995431;28;20456;-89
2023/01/06 11:13:44;;;;;;;23.45;3.13;;;;;;;9.23;100.00;101576.91;4982437;28;20030;-90
2023/01/06 11:16:18;;;;;;;14.77;1.98;;;;;;;9.16;100.00;101571.94;4985664;28;20044;-89
2023/01/06 11:18:50;;;;;;;15.75;2.50;;;;;;;9.23;100.00;101582.50;4996208;28;20525;-91
2023/01/06 11:21:15;;;;;;;15.37;2.97;;;;;;;9.06;100.00;101550.88;4978602;28;20022;-90
2023/01/06 11:23:43;;;;;;;14.90;3.05;;;;;;;9.06;100.00;101539.69;4983006;28;20030;-90
2023/01/06 11:26:16;;;;;;;18.58;2.25;;;;;;;9.27;100.00;101572.25;4979364;28;20034;-90